Terminal Aerodrome Forecast
Issued by NWS

Current Version | Previous Version | Graphics & Text | Print | Product List | Glossary On
Versions: 1 2 3 4 5 6 7 8 9 10 11 12 13 14 15 16 17 18 19 20 21 22 23 24
000
FTUS41 KILN 250533
TAFLUK
TAF
KLUK 250533Z 2506/2606 18003KT P6SM FEW060 BKN220
     FM251400 17009KT P6SM OVC160
     FM252300 14003KT P6SM OVC090=

USA.gov is the U.S. government's official web portal to all federal, state and local government web resources and services.